sensor_id;sensor_type;location;lat;lon;timestamp;P1;durP1;ratioP1;P2;durP2;ratioP2
78402;SDS011;67687;43.508;1.504;2024-03-02T00:01:17;10.40;;;4.38;;
78402;SDS011;67687;43.508;1.504;2024-03-02T00:03:43;11.82;;;5.65;;
78402;SDS011;67687;43.508;1.504;2024-03-02T00:06:10;11.70;;;6.10;;
78402;SDS011;67687;43.508;1.504;2024-03-02T00:08:37;11.77;;;6.00;;
78402;SDS011;67687;43.508;1.504;2024-03-02T00:11:03;9.88;;;5.53;;
78402;SDS011;67687;43.508;1.504;2024-03-02T00:13:31;10.23;;;5.43;;
78402;SDS011;67687;43.508;1.504;2024-03-02T00:15:58;42.72;;;16.10;;
78402;SDS011;67687;43.508;1.504;2024-03-02T00:18:25;12.43;;;6.47;;
78402;SDS011;67687;43.508;1.504;2024-03-02T00:20:52;54.67;;;21.83;;
78402;SDS011;67687;43.508;1.504;2024-03-02T00:23:19;25.00;;;10.52;;
78402;SDS011;67687;43.508;1.504;2024-03-02T00:25:47;20.50;;;8.07;;
78402;SDS011;67687;43.508;1.504;2024-03-02T00:28:16;12.20;;;6.07;;
78402;SDS011;67687;43.508;1.504;2024-03-02T00:33:30;96.97;;;36.95;;
78402;SDS011;67687;43.508;1.504;2024-03-02T00:35:56;20.20;;;9.43;;
78402;SDS011;67687;43.508;1.504;2024-03-02T00:38:24;41.40;;;17.67;;
78402;SDS011;67687;43.508;1.504;2024-03-02T00:40:51;25.13;;;11.25;;
78402;SDS011;67687;43.508;1.504;2024-03-02T00:43:30;21.60;;;10.02;;
78402;SDS011;67687;43.508;1.504;2024-03-02T00:46:01;20.27;;;8.00;;
78402;SDS011;67687;43.508;1.504;2024-03-02T00:48:29;11.68;;;5.90;;
78402;SDS011;67687;43.508;1.504;2024-03-02T00:50:56;9.90;;;5.47;;
78402;SDS011;67687;43.508;1.504;2024-03-02T00:53:23;11.60;;;5.57;;
78402;SDS011;67687;43.508;1.504;2024-03-02T00:55:50;11.65;;;6.00;;
78402;SDS011;67687;43.508;1.504;2024-03-02T00:58:17;56.50;;;20.70;;
78402;SDS011;67687;43.508;1.504;2024-03-02T01:00:43;31.27;;;12.75;;
78402;SDS011;67687;43.508;1.504;2024-03-02T01:03:10;12.30;;;6.20;;
78402;SDS011;67687;43.508;1.504;2024-03-02T01:05:39;9.93;;;5.78;;
78402;SDS011;67687;43.508;1.504;2024-03-02T01:08:07;12.60;;;5.40;;
78402;SDS011;67687;43.508;1.504;2024-03-02T01:10:33;14.90;;;7.40;;
78402;SDS011;67687;43.508;1.504;2024-03-02T01:13:00;11.07;;;5.40;;
78402;SDS011;67687;43.508;1.504;2024-03-02T01:15:26;37.37;;;14.23;;
78402;SDS011;67687;43.508;1.504;2024-03-02T01:17:53;17.90;;;8.27;;
78402;SDS011;67687;43.508;1.504;2024-03-02T01:20:19;12.93;;;6.22;;
78402;SDS011;67687;43.508;1.504;2024-03-02T01:22:48;9.80;;;4.85;;
78402;SDS011;67687;43.508;1.504;2024-03-02T01:25:14;41.17;;;14.95;;
78402;SDS011;67687;43.508;1.504;2024-03-02T01:27:41;51.97;;;19.77;;
78402;SDS011;67687;43.508;1.504;2024-03-02T01:30:08;42.38;;;16.23;;
78402;SDS011;67687;43.508;1.504;2024-03-02T01:32:34;23.85;;;8.88;;
78402;SDS011;67687;43.508;1.504;2024-03-02T01:35:01;9.23;;;4.40;;
78402;SDS011;67687;43.508;1.504;2024-03-02T01:37:27;8.77;;;4.22;;
78402;SDS011;67687;43.508;1.504;2024-03-02T01:39:55;21.73;;;9.07;;
78402;SDS011;67687;43.508;1.504;2024-03-02T01:42:22;13.10;;;5.50;;
78402;SDS011;67687;43.508;1.504;2024-03-02T01:44:48;17.80;;;6.90;;
78402;SDS011;67687;43.508;1.504;2024-03-02T01:47:15;8.90;;;4.43;;
78402;SDS011;67687;43.508;1.504;2024-03-02T01:49:41;8.05;;;4.38;;
78402;SDS011;67687;43.508;1.504;2024-03-02T01:52:08;10.07;;;4.40;;
78402;SDS011;67687;43.508;1.504;2024-03-02T01:54:36;8.90;;;4.63;;
78402;SDS011;67687;43.508;1.504;2024-03-02T01:57:04;8.70;;;4.30;;
78402;SDS011;67687;43.508;1.504;2024-03-02T01:59:31;9.98;;;4.50;;
78402;SDS011;67687;43.508;1.504;2024-03-02T02:01:58;11.13;;;4.85;;
78402;SDS011;67687;43.508;1.504;2024-03-02T02:04:24;9.23;;;4.43;;
78402;SDS011;67687;43.508;1.504;2024-03-02T02:06:52;8.98;;;4.30;;
78402;SDS011;67687;43.508;1.504;2024-03-02T02:09:19;9.15;;;4.15;;
78402;SDS011;67687;43.508;1.504;2024-03-02T02:11:46;8.52;;;4.07;;
78402;SDS011;67687;43.508;1.504;2024-03-02T02:14:14;7.82;;;3.60;;
78402;SDS011;67687;43.508;1.504;2024-03-02T02:16:40;7.93;;;4.00;;
78402;SDS011;67687;43.508;1.504;2024-03-02T02:19:07;9.13;;;3.65;;
78402;SDS011;67687;43.508;1.504;2024-03-02T02:21:35;8.52;;;3.90;;
78402;SDS011;67687;43.508;1.504;2024-03-02T02:24:02;7.38;;;3.70;;
78402;SDS011;67687;43.508;1.504;2024-03-02T02:26:29;8.05;;;3.97;;
78402;SDS011;67687;43.508;1.504;2024-03-02T02:28:55;7.93;;;3.27;;
78402;SDS011;67687;43.508;1.504;2024-03-02T02:31:22;7.07;;;3.58;;
78402;SDS011;67687;43.508;1.504;2024-03-02T02:33:48;6.28;;;3.65;;
78402;SDS011;67687;43.508;1.504;2024-03-02T02:36:15;7.68;;;3.70;;
78402;SDS011;67687;43.508;1.504;2024-03-02T02:38:44;5.72;;;2.70;;
78402;SDS011;67687;43.508;1.504;2024-03-02T02:41:12;6.80;;;3.07;;
78402;SDS011;67687;43.508;1.504;2024-03-02T02:43:39;7.38;;;2.60;;
78402;SDS011;67687;43.508;1.504;2024-03-02T02:46:05;7.72;;;2.72;;
78402;SDS011;67687;43.508;1.504;2024-03-02T02:48:32;5.95;;;2.58;;
78402;SDS011;67687;43.508;1.504;2024-03-02T02:50:58;7.40;;;2.65;;
78402;SDS011;67687;43.508;1.504;2024-03-02T02:53:25;5.60;;;2.50;;
78402;SDS011;67687;43.508;1.504;2024-03-02T02:55:52;6.47;;;2.92;;
78402;SDS011;67687;43.508;1.504;2024-03-02T02:58:19;8.75;;;3.38;;
78402;SDS011;67687;43.508;1.504;2024-03-02T03:00:46;7.40;;;3.15;;
78402;SDS011;67687;43.508;1.504;2024-03-02T03:03:12;7.38;;;3.15;;
78402;SDS011;67687;43.508;1.504;2024-03-02T03:05:39;6.90;;;2.77;;
78402;SDS011;67687;43.508;1.504;2024-03-02T03:08:06;5.50;;;2.47;;
78402;SDS011;67687;43.508;1.504;2024-03-02T03:10:32;6.40;;;3.50;;
78402;SDS011;67687;43.508;1.504;2024-03-02T03:13:00;7.20;;;3.50;;
78402;SDS011;67687;43.508;1.504;2024-03-02T03:15:27;6.85;;;3.17;;
78402;SDS011;67687;43.508;1.504;2024-03-02T03:17:54;6.23;;;2.77;;
78402;SDS011;67687;43.508;1.504;2024-03-02T03:20:21;7.68;;;3.13;;
78402;SDS011;67687;43.508;1.504;2024-03-02T03:22:48;6.88;;;2.60;;
78402;SDS011;67687;43.508;1.504;2024-03-02T03:25:15;8.05;;;2.80;;
78402;SDS011;67687;43.508;1.504;2024-03-02T03:27:41;7.93;;;2.53;;
78402;SDS011;67687;43.508;1.504;2024-03-02T03:30:10;8.23;;;2.77;;
78402;SDS011;67687;43.508;1.504;2024-03-02T03:32:36;7.35;;;2.78;;
78402;SDS011;67687;43.508;1.504;2024-03-02T03:35:03;6.93;;;3.08;;
78402;SDS011;67687;43.508;1.504;2024-03-02T03:37:30;6.07;;;2.80;;
78402;SDS011;67687;43.508;1.504;2024-03-02T03:39:58;8.32;;;3.63;;
78402;SDS011;67687;43.508;1.504;2024-03-02T03:42:24;10.23;;;3.53;;
78402;SDS011;67687;43.508;1.504;2024-03-02T03:44:51;7.15;;;3.40;;
78402;SDS011;67687;43.508;1.504;2024-03-02T03:47:19;7.90;;;3.58;;
78402;SDS011;67687;43.508;1.504;2024-03-02T03:49:45;7.72;;;3.13;;
78402;SDS011;67687;43.508;1.504;2024-03-02T03:52:12;7.80;;;3.47;;
78402;SDS011;67687;43.508;1.504;2024-03-02T03:54:38;8.20;;;3.33;;
78402;SDS011;67687;43.508;1.504;2024-03-02T03:57:05;9.98;;;4.20;;
78402;SDS011;67687;43.508;1.504;2024-03-02T03:59:31;7.75;;;3.80;;
78402;SDS011;67687;43.508;1.504;2024-03-02T04:01:58;7.18;;;3.70;;
78402;SDS011;67687;43.508;1.504;2024-03-02T04:04:26;9.38;;;4.03;;
78402;SDS011;67687;43.508;1.504;2024-03-02T04:06:52;10.47;;;3.93;;
78402;SDS011;67687;43.508;1.504;2024-03-02T04:09:19;10.00;;;3.95;;
78402;SDS011;67687;43.508;1.504;2024-03-02T04:11:45;7.13;;;3.67;;
78402;SDS011;67687;43.508;1.504;2024-03-02T04:14:12;6.70;;;3.60;;
78402;SDS011;67687;43.508;1.504;2024-03-02T04:16:38;6.90;;;3.78;;
78402;SDS011;67687;43.508;1.504;2024-03-02T04:19:05;7.20;;;3.60;;
78402;SDS011;67687;43.508;1.504;2024-03-02T04:21:33;6.88;;;3.22;;
78402;SDS011;67687;43.508;1.504;2024-03-02T04:23:59;10.73;;;3.70;;
78402;SDS011;67687;43.508;1.504;2024-03-02T04:26:26;6.75;;;3.25;;
78402;SDS011;67687;43.508;1.504;2024-03-02T04:28:52;9.35;;;3.65;;
78402;SDS011;67687;43.508;1.504;2024-03-02T04:31:19;6.43;;;3.40;;
78402;SDS011;67687;43.508;1.504;2024-03-02T04:33:46;10.38;;;4.95;;
78402;SDS011;67687;43.508;1.504;2024-03-02T04:36:13;7.20;;;3.47;;
78402;SDS011;67687;43.508;1.504;2024-03-02T04:38:40;7.20;;;3.40;;
78402;SDS011;67687;43.508;1.504;2024-03-02T04:41:07;7.70;;;3.28;;
78402;SDS011;67687;43.508;1.504;2024-03-02T04:43:34;7.20;;;3.30;;
78402;SDS011;67687;43.508;1.504;2024-03-02T04:46:00;8.65;;;4.50;;
78402;SDS011;67687;43.508;1.504;2024-03-02T04:48:27;7.40;;;3.40;;
78402;SDS011;67687;43.508;1.504;2024-03-02T04:50:54;5.93;;;3.03;;
78402;SDS011;67687;43.508;1.504;2024-03-02T04:53:20;5.50;;;3.10;;
78402;SDS011;67687;43.508;1.504;2024-03-02T04:55:48;7.30;;;2.83;;
78402;SDS011;67687;43.508;1.504;2024-03-02T04:58:52;5.85;;;3.17;;
78402;SDS011;67687;43.508;1.504;2024-03-02T05:01:19;7.57;;;3.33;;
78402;SDS011;67687;43.508;1.504;2024-03-02T05:03:45;6.90;;;2.83;;
78402;SDS011;67687;43.508;1.504;2024-03-02T05:06:12;5.90;;;3.20;;
78402;SDS011;67687;43.508;1.504;2024-03-02T05:08:38;8.37;;;3.37;;
78402;SDS011;67687;43.508;1.504;2024-03-02T05:11:06;6.40;;;3.00;;
78402;SDS011;67687;43.508;1.504;2024-03-02T05:13:47;7.53;;;3.83;;
78402;SDS011;67687;43.508;1.504;2024-03-02T05:16:13;6.97;;;3.88;;
78402;SDS011;67687;43.508;1.504;2024-03-02T05:18:40;8.02;;;3.60;;
78402;SDS011;67687;43.508;1.504;2024-03-02T05:21:06;7.60;;;2.97;;
78402;SDS011;67687;43.508;1.504;2024-03-02T05:23:33;6.70;;;3.28;;
78402;SDS011;67687;43.508;1.504;2024-03-02T05:25:59;8.50;;;3.63;;
78402;SDS011;67687;43.508;1.504;2024-03-02T05:28:27;7.95;;;3.70;;
78402;SDS011;67687;43.508;1.504;2024-03-02T05:30:53;8.30;;;3.10;;
78402;SDS011;67687;43.508;1.504;2024-03-02T05:33:20;7.53;;;3.40;;
78402;SDS011;67687;43.508;1.504;2024-03-02T05:35:47;7.90;;;3.58;;
78402;SDS011;67687;43.508;1.504;2024-03-02T05:38:15;6.55;;;3.50;;
78402;SDS011;67687;43.508;1.504;2024-03-02T05:40:41;6.32;;;3.50;;
78402;SDS011;67687;43.508;1.504;2024-03-02T05:43:08;8.50;;;3.58;;
78402;SDS011;67687;43.508;1.504;2024-03-02T05:45:36;8.37;;;3.60;;
78402;SDS011;67687;43.508;1.504;2024-03-02T05:48:02;7.25;;;3.20;;
78402;SDS011;67687;43.508;1.504;2024-03-02T05:50:29;6.40;;;3.40;;
78402;SDS011;67687;43.508;1.504;2024-03-02T05:52:56;9.45;;;4.97;;
78402;SDS011;67687;43.508;1.504;2024-03-02T05:55:23;9.27;;;4.70;;
78402;SDS011;67687;43.508;1.504;2024-03-02T05:57:50;9.67;;;3.70;;
78402;SDS011;67687;43.508;1.504;2024-03-02T06:00:38;6.18;;;3.10;;
78402;SDS011;67687;43.508;1.504;2024-03-02T06:03:04;8.32;;;3.75;;
78402;SDS011;67687;43.508;1.504;2024-03-02T06:05:33;6.85;;;3.88;;
78402;SDS011;67687;43.508;1.504;2024-03-02T06:07:59;6.43;;;3.58;;
78402;SDS011;67687;43.508;1.504;2024-03-02T06:10:25;8.63;;;4.43;;
78402;SDS011;67687;43.508;1.504;2024-03-02T06:12:52;8.05;;;3.90;;
78402;SDS011;67687;43.508;1.504;2024-03-02T06:15:18;7.70;;;3.50;;
78402;SDS011;67687;43.508;1.504;2024-03-02T06:17:46;7.50;;;3.60;;
78402;SDS011;67687;43.508;1.504;2024-03-02T06:20:13;7.57;;;3.80;;
78402;SDS011;67687;43.508;1.504;2024-03-02T06:22:39;8.30;;;3.57;;
78402;SDS011;67687;43.508;1.504;2024-03-02T06:25:06;39.67;;;15.60;;
78402;SDS011;67687;43.508;1.504;2024-03-02T06:27:33;103.18;;;38.58;;
78402;SDS011;67687;43.508;1.504;2024-03-02T06:29:59;106.45;;;40.00;;
78402;SDS011;67687;43.508;1.504;2024-03-02T06:32:25;34.30;;;16.05;;
78402;SDS011;67687;43.508;1.504;2024-03-02T06:34:53;39.23;;;15.77;;
78402;SDS011;67687;43.508;1.504;2024-03-02T06:37:20;22.98;;;10.45;;
78402;SDS011;67687;43.508;1.504;2024-03-02T06:39:46;12.32;;;6.00;;
78402;SDS011;67687;43.508;1.504;2024-03-02T06:42:13;41.38;;;20.02;;
78402;SDS011;67687;43.508;1.504;2024-03-02T06:44:39;83.13;;;36.08;;
78402;SDS011;67687;43.508;1.504;2024-03-02T06:47:06;23.50;;;11.13;;
78402;SDS011;67687;43.508;1.504;2024-03-02T06:49:32;14.45;;;6.68;;
78402;SDS011;67687;43.508;1.504;2024-03-02T06:52:01;17.10;;;7.82;;
78402;SDS011;67687;43.508;1.504;2024-03-02T06:54:28;14.98;;;6.05;;
78402;SDS011;67687;43.508;1.504;2024-03-02T06:56:54;10.38;;;4.68;;
78402;SDS011;67687;43.508;1.504;2024-03-02T06:59:21;18.43;;;10.17;;
78402;SDS011;67687;43.508;1.504;2024-03-02T07:01:47;19.55;;;9.40;;
78402;SDS011;67687;43.508;1.504;2024-03-02T07:04:14;11.45;;;6.07;;
78402;SDS011;67687;43.508;1.504;2024-03-02T07:06:40;8.20;;;3.80;;
78402;SDS011;67687;43.508;1.504;2024-03-02T07:09:08;7.78;;;3.83;;
78402;SDS011;67687;43.508;1.504;2024-03-02T07:11:36;6.00;;;3.30;;
78402;SDS011;67687;43.508;1.504;2024-03-02T07:14:02;9.85;;;3.47;;
78402;SDS011;67687;43.508;1.504;2024-03-02T07:16:29;7.85;;;3.58;;
78402;SDS011;67687;43.508;1.504;2024-03-02T07:18:58;8.07;;;3.30;;
78402;SDS011;67687;43.508;1.504;2024-03-02T07:21:26;7.97;;;2.65;;
78402;SDS011;67687;43.508;1.504;2024-03-02T07:23:53;6.03;;;2.67;;
78402;SDS011;67687;43.508;1.504;2024-03-02T07:26:21;8.13;;;2.60;;
78402;SDS011;67687;43.508;1.504;2024-03-02T07:28:48;5.53;;;2.45;;
78402;SDS011;67687;43.508;1.504;2024-03-02T07:31:14;5.68;;;2.38;;
78402;SDS011;67687;43.508;1.504;2024-03-02T07:33:43;6.07;;;1.92;;
78402;SDS011;67687;43.508;1.504;2024-03-02T07:36:09;6.87;;;3.00;;
78402;SDS011;67687;43.508;1.504;2024-03-02T07:38:36;6.35;;;2.72;;
78402;SDS011;67687;43.508;1.504;2024-03-02T07:41:02;8.90;;;3.13;;
78402;SDS011;67687;43.508;1.504;2024-03-02T07:43:31;7.13;;;3.60;;
78402;SDS011;67687;43.508;1.504;2024-03-02T07:45:58;6.85;;;3.47;;
78402;SDS011;67687;43.508;1.504;2024-03-02T07:48:25;7.13;;;3.43;;
78402;SDS011;67687;43.508;1.504;2024-03-02T07:50:52;7.32;;;3.47;;
78402;SDS011;67687;43.508;1.504;2024-03-02T07:53:18;6.55;;;3.10;;
78402;SDS011;67687;43.508;1.504;2024-03-02T07:55:45;6.18;;;3.00;;
78402;SDS011;67687;43.508;1.504;2024-03-02T07:58:11;5.10;;;2.25;;
78402;SDS011;67687;43.508;1.504;2024-03-02T08:00:40;5.87;;;3.00;;
78402;SDS011;67687;43.508;1.504;2024-03-02T08:03:07;5.63;;;2.85;;
78402;SDS011;67687;43.508;1.504;2024-03-02T08:05:36;8.80;;;3.60;;
78402;SDS011;67687;43.508;1.504;2024-03-02T08:08:02;7.10;;;3.10;;
78402;SDS011;67687;43.508;1.504;2024-03-02T08:10:29;4.80;;;2.08;;
78402;SDS011;67687;43.508;1.504;2024-03-02T08:12:56;5.53;;;2.60;;
78402;SDS011;67687;43.508;1.504;2024-03-02T08:15:22;6.82;;;2.80;;
78402;SDS011;67687;43.508;1.504;2024-03-02T08:17:50;6.78;;;2.88;;
78402;SDS011;67687;43.508;1.504;2024-03-02T08:20:17;7.05;;;3.08;;
78402;SDS011;67687;43.508;1.504;2024-03-02T08:22:45;5.00;;;2.10;;
78402;SDS011;67687;43.508;1.504;2024-03-02T08:25:12;5.27;;;2.40;;
78402;SDS011;67687;43.508;1.504;2024-03-02T08:27:39;6.05;;;2.50;;
78402;SDS011;67687;43.508;1.504;2024-03-02T08:30:06;5.28;;;2.60;;
78402;SDS011;67687;43.508;1.504;2024-03-02T08:32:33;7.53;;;2.67;;
78402;SDS011;67687;43.508;1.504;2024-03-02T08:35:01;6.80;;;2.67;;
78402;SDS011;67687;43.508;1.504;2024-03-02T08:37:27;7.20;;;2.50;;
78402;SDS011;67687;43.508;1.504;2024-03-02T08:39:54;7.97;;;2.42;;
78402;SDS011;67687;43.508;1.504;2024-03-02T08:42:21;5.50;;;2.60;;
78402;SDS011;67687;43.508;1.504;2024-03-02T08:44:47;6.13;;;2.17;;
78402;SDS011;67687;43.508;1.504;2024-03-02T08:47:14;5.85;;;1.73;;
78402;SDS011;67687;43.508;1.504;2024-03-02T08:49:40;7.37;;;2.17;;
78402;SDS011;67687;43.508;1.504;2024-03-02T08:52:08;6.80;;;2.13;;
78402;SDS011;67687;43.508;1.504;2024-03-02T08:54:35;9.50;;;3.47;;
78402;SDS011;67687;43.508;1.504;2024-03-02T08:57:02;6.10;;;2.60;;
78402;SDS011;67687;43.508;1.504;2024-03-02T08:59:29;8.82;;;2.80;;
78402;SDS011;67687;43.508;1.504;2024-03-02T09:01:56;8.03;;;2.50;;
78402;SDS011;67687;43.508;1.504;2024-03-02T09:04:23;7.47;;;2.50;;
78402;SDS011;67687;43.508;1.504;2024-03-02T09:06:49;7.97;;;2.70;;
78402;SDS011;67687;43.508;1.504;2024-03-02T09:09:17;6.90;;;2.30;;
78402;SDS011;67687;43.508;1.504;2024-03-02T09:11:45;6.93;;;2.40;;
78402;SDS011;67687;43.508;1.504;2024-03-02T09:14:12;5.43;;;2.47;;
78402;SDS011;67687;43.508;1.504;2024-03-02T09:16:40;7.10;;;2.80;;
78402;SDS011;67687;43.508;1.504;2024-03-02T09:19:06;6.47;;;2.53;;
78402;SDS011;67687;43.508;1.504;2024-03-02T09:21:33;7.65;;;2.78;;
78402;SDS011;67687;43.508;1.504;2024-03-02T09:23:59;8.52;;;2.65;;
78402;SDS011;67687;43.508;1.504;2024-03-02T09:26:29;7.70;;;3.27;;
78402;SDS011;67687;43.508;1.504;2024-03-02T09:28:55;8.73;;;2.97;;
78402;SDS011;67687;43.508;1.504;2024-03-02T09:31:21;5.45;;;2.33;;
78402;SDS011;67687;43.508;1.504;2024-03-02T09:33:48;7.85;;;2.45;;
78402;SDS011;67687;43.508;1.504;2024-03-02T09:36:17;7.10;;;2.70;;
78402;SDS011;67687;43.508;1.504;2024-03-02T09:38:44;7.27;;;2.70;;
78402;SDS011;67687;43.508;1.504;2024-03-02T09:41:12;8.00;;;2.35;;
78402;SDS011;67687;43.508;1.504;2024-03-02T09:43:39;8.77;;;3.50;;
78402;SDS011;67687;43.508;1.504;2024-03-02T09:46:06;6.80;;;2.63;;
78402;SDS011;67687;43.508;1.504;2024-03-02T09:48:33;8.82;;;2.20;;
78402;SDS011;67687;43.508;1.504;2024-03-02T09:51:00;7.63;;;2.63;;
78402;SDS011;67687;43.508;1.504;2024-03-02T09:53:27;7.93;;;2.60;;
78402;SDS011;67687;43.508;1.504;2024-03-02T09:55:56;11.88;;;3.00;;
78402;SDS011;67687;43.508;1.504;2024-03-02T09:58:22;7.45;;;2.65;;
78402;SDS011;67687;43.508;1.504;2024-03-02T10:00:50;6.80;;;2.50;;
78402;SDS011;67687;43.508;1.504;2024-03-02T10:03:17;6.23;;;2.57;;
78402;SDS011;67687;43.508;1.504;2024-03-02T10:05:44;6.18;;;2.50;;
78402;SDS011;67687;43.508;1.504;2024-03-02T10:08:11;8.40;;;2.95;;
78402;SDS011;67687;43.508;1.504;2024-03-02T10:10:38;8.05;;;2.50;;
78402;SDS011;67687;43.508;1.504;2024-03-02T10:13:07;7.65;;;3.05;;
78402;SDS011;67687;43.508;1.504;2024-03-02T10:15:35;8.47;;;2.60;;
78402;SDS011;67687;43.508;1.504;2024-03-02T10:18:04;8.40;;;2.60;;
78402;SDS011;67687;43.508;1.504;2024-03-02T10:20:30;11.13;;;3.05;;
78402;SDS011;67687;43.508;1.504;2024-03-02T10:23:09;8.65;;;2.95;;
78402;SDS011;67687;43.508;1.504;2024-03-02T10:25:35;9.50;;;3.22;;
78402;SDS011;67687;43.508;1.504;2024-03-02T10:28:02;8.40;;;2.50;;
78402;SDS011;67687;43.508;1.504;2024-03-02T10:30:30;8.82;;;2.58;;
78402;SDS011;67687;43.508;1.504;2024-03-02T10:32:56;8.88;;;2.40;;
78402;SDS011;67687;43.508;1.504;2024-03-02T10:35:25;7.43;;;2.70;;
78402;SDS011;67687;43.508;1.504;2024-03-02T10:37:52;8.45;;;3.00;;
78402;SDS011;67687;43.508;1.504;2024-03-02T10:40:21;5.77;;;2.93;;
78402;SDS011;67687;43.508;1.504;2024-03-02T10:42:47;9.88;;;3.20;;
78402;SDS011;67687;43.508;1.504;2024-03-02T10:45:15;5.72;;;2.05;;
78402;SDS011;67687;43.508;1.504;2024-03-02T10:47:42;10.68;;;2.75;;
78402;SDS011;67687;43.508;1.504;2024-03-02T10:50:09;6.88;;;2.50;;
78402;SDS011;67687;43.508;1.504;2024-03-02T10:52:37;6.50;;;2.50;;
78402;SDS011;67687;43.508;1.504;2024-03-02T10:55:04;8.27;;;2.88;;
78402;SDS011;67687;43.508;1.504;2024-03-02T10:57:33;9.88;;;3.35;;
78402;SDS011;67687;43.508;1.504;2024-03-02T11:00:05;8.50;;;3.13;;
78402;SDS011;67687;43.508;1.504;2024-03-02T11:02:37;6.90;;;2.85;;
78402;SDS011;67687;43.508;1.504;2024-03-02T11:05:05;11.43;;;2.90;;
78402;SDS011;67687;43.508;1.504;2024-03-02T11:07:33;10.55;;;2.75;;
78402;SDS011;67687;43.508;1.504;2024-03-02T11:10:01;8.35;;;2.97;;
78402;SDS011;67687;43.508;1.504;2024-03-02T11:12:35;8.48;;;2.58;;
78402;SDS011;67687;43.508;1.504;2024-03-02T11:15:03;9.32;;;2.85;;
78402;SDS011;67687;43.508;1.504;2024-03-02T11:17:31;7.10;;;2.50;;
78402;SDS011;67687;43.508;1.504;2024-03-02T11:19:57;6.13;;;2.33;;
78402;SDS011;67687;43.508;1.504;2024-03-02T11:22:24;5.68;;;2.50;;
78402;SDS011;67687;43.508;1.504;2024-03-02T11:24:51;6.82;;;2.30;;
78402;SDS011;67687;43.508;1.504;2024-03-02T11:30:00;5.70;;;1.87;;
78402;SDS011;67687;43.508;1.504;2024-03-02T11:32:27;7.78;;;2.25;;
78402;SDS011;67687;43.508;1.504;2024-03-02T11:34:53;6.55;;;2.33;;
78402;SDS011;67687;43.508;1.504;2024-03-02T11:37:20;6.90;;;2.30;;
78402;SDS011;67687;43.508;1.504;2024-03-02T11:39:48;8.48;;;2.10;;
78402;SDS011;67687;43.508;1.504;2024-03-02T11:42:15;8.33;;;2.63;;
78402;SDS011;67687;43.508;1.504;2024-03-02T11:44:42;6.50;;;2.55;;
78402;SDS011;67687;43.508;1.504;2024-03-02T11:47:11;8.68;;;2.80;;
78402;SDS011;67687;43.508;1.504;2024-03-02T11:49:40;6.97;;;2.75;;
78402;SDS011;67687;43.508;1.504;2024-03-02T11:52:09;9.57;;;3.10;;
78402;SDS011;67687;43.508;1.504;2024-03-02T11:54:36;6.10;;;1.93;;
78402;SDS011;67687;43.508;1.504;2024-03-02T11:57:04;6.95;;;2.92;;
78402;SDS011;67687;43.508;1.504;2024-03-02T11:59:31;7.63;;;2.70;;
78402;SDS011;67687;43.508;1.504;2024-03-02T12:01:58;7.80;;;2.90;;
78402;SDS011;67687;43.508;1.504;2024-03-02T12:04:27;6.55;;;2.55;;
78402;SDS011;67687;43.508;1.504;2024-03-02T12:06:56;8.27;;;2.30;;
78402;SDS011;67687;43.508;1.504;2024-03-02T12:09:25;8.57;;;3.17;;
78402;SDS011;67687;43.508;1.504;2024-03-02T12:12:00;8.10;;;2.95;;
78402;SDS011;67687;43.508;1.504;2024-03-02T12:14:27;7.35;;;2.40;;
78402;SDS011;67687;43.508;1.504;2024-03-02T12:16:54;7.95;;;3.15;;
78402;SDS011;67687;43.508;1.504;2024-03-02T12:19:21;8.23;;;3.20;;
78402;SDS011;67687;43.508;1.504;2024-03-02T12:21:49;6.78;;;2.80;;
78402;SDS011;67687;43.508;1.504;2024-03-02T12:24:15;13.93;;;3.28;;
78402;SDS011;67687;43.508;1.504;2024-03-02T12:26:42;9.85;;;3.60;;
78402;SDS011;67687;43.508;1.504;2024-03-02T12:29:08;13.05;;;4.60;;
78402;SDS011;67687;43.508;1.504;2024-03-02T12:31:35;8.67;;;3.00;;
78402;SDS011;67687;43.508;1.504;2024-03-02T12:34:01;7.45;;;3.15;;
78402;SDS011;67687;43.508;1.504;2024-03-02T12:36:28;9.68;;;2.97;;
78402;SDS011;67687;43.508;1.504;2024-03-02T12:38:56;6.97;;;2.60;;
78402;SDS011;67687;43.508;1.504;2024-03-02T12:41:23;9.55;;;2.92;;
78402;SDS011;67687;43.508;1.504;2024-03-02T12:43:49;7.20;;;2.60;;
78402;SDS011;67687;43.508;1.504;2024-03-02T12:46:15;5.60;;;2.22;;
78402;SDS011;67687;43.508;1.504;2024-03-02T12:48:42;8.65;;;2.88;;
78402;SDS011;67687;43.508;1.504;2024-03-02T12:51:08;7.93;;;2.90;;
78402;SDS011;67687;43.508;1.504;2024-03-02T12:53:35;7.47;;;2.50;;
78402;SDS011;67687;43.508;1.504;2024-03-02T12:56:03;4.70;;;2.10;;
78402;SDS011;67687;43.508;1.504;2024-03-02T12:58:38;7.45;;;2.28;;
78402;SDS011;67687;43.508;1.504;2024-03-02T13:01:07;6.97;;;2.75;;
78402;SDS011;67687;43.508;1.504;2024-03-02T13:03:35;7.68;;;3.03;;
78402;SDS011;67687;43.508;1.504;2024-03-02T13:06:01;7.13;;;2.75;;
78402;SDS011;67687;43.508;1.504;2024-03-02T13:08:28;6.27;;;2.40;;
78402;SDS011;67687;43.508;1.504;2024-03-02T13:10:54;8.05;;;2.42;;
78402;SDS011;67687;43.508;1.504;2024-03-02T13:13:22;8.75;;;3.05;;
78402;SDS011;67687;43.508;1.504;2024-03-02T13:15:49;8.60;;;2.40;;
78402;SDS011;67687;43.508;1.504;2024-03-02T13:18:17;4.75;;;2.00;;
78402;SDS011;67687;43.508;1.504;2024-03-02T13:20:44;7.50;;;2.43;;
78402;SDS011;67687;43.508;1.504;2024-03-02T13:23:10;5.75;;;2.10;;
78402;SDS011;67687;43.508;1.504;2024-03-02T13:25:37;8.27;;;2.30;;
78402;SDS011;67687;43.508;1.504;2024-03-02T13:28:03;8.02;;;2.40;;
78402;SDS011;67687;43.508;1.504;2024-03-02T13:30:31;8.32;;;2.45;;
78402;SDS011;67687;43.508;1.504;2024-03-02T13:32:58;9.57;;;2.60;;
78402;SDS011;67687;43.508;1.504;2024-03-02T13:35:25;7.00;;;2.35;;
78402;SDS011;67687;43.508;1.504;2024-03-02T13:37:51;8.52;;;2.45;;
78402;SDS011;67687;43.508;1.504;2024-03-02T13:40:17;9.90;;;2.67;;
78402;SDS011;67687;43.508;1.504;2024-03-02T13:42:45;10.10;;;2.97;;
78402;SDS011;67687;43.508;1.504;2024-03-02T13:45:12;8.30;;;1.87;;
78402;SDS011;67687;43.508;1.504;2024-03-02T13:47:40;6.32;;;2.08;;
78402;SDS011;67687;43.508;1.504;2024-03-02T13:50:07;5.82;;;1.67;;
78402;SDS011;67687;43.508;1.504;2024-03-02T13:52:33;5.25;;;1.80;;
78402;SDS011;67687;43.508;1.504;2024-03-02T13:55:00;5.85;;;2.08;;
78402;SDS011;67687;43.508;1.504;2024-03-02T13:57:27;7.23;;;1.93;;
78402;SDS011;67687;43.508;1.504;2024-03-02T13:59:53;8.85;;;2.05;;
78402;SDS011;67687;43.508;1.504;2024-03-02T14:02:20;9.38;;;2.35;;
78402;SDS011;67687;43.508;1.504;2024-03-02T14:04:48;7.90;;;2.15;;
78402;SDS011;67687;43.508;1.504;2024-03-02T14:07:14;6.50;;;2.10;;
78402;SDS011;67687;43.508;1.504;2024-03-02T14:09:41;8.40;;;2.33;;
78402;SDS011;67687;43.508;1.504;2024-03-02T14:12:08;6.57;;;2.30;;
78402;SDS011;67687;43.508;1.504;2024-03-02T14:14:35;5.85;;;2.50;;
78402;SDS011;67687;43.508;1.504;2024-03-02T14:17:01;7.57;;;2.53;;
78402;SDS011;67687;43.508;1.504;2024-03-02T14:19:31;11.68;;;2.67;;
78402;SDS011;67687;43.508;1.504;2024-03-02T14:21:59;7.80;;;2.37;;
78402;SDS011;67687;43.508;1.504;2024-03-02T14:24:25;5.78;;;2.50;;
78402;SDS011;67687;43.508;1.504;2024-03-02T14:26:54;7.85;;;2.53;;
78402;SDS011;67687;43.508;1.504;2024-03-02T14:29:22;7.43;;;2.50;;
78402;SDS011;67687;43.508;1.504;2024-03-02T14:31:48;7.82;;;2.08;;
78402;SDS011;67687;43.508;1.504;2024-03-02T14:34:15;8.90;;;2.20;;
78402;SDS011;67687;43.508;1.504;2024-03-02T14:36:41;11.68;;;3.30;;
78402;SDS011;67687;43.508;1.504;2024-03-02T14:39:10;7.25;;;2.35;;
78402;SDS011;67687;43.508;1.504;2024-03-02T14:41:37;11.38;;;3.15;;
78402;SDS011;67687;43.508;1.504;2024-03-02T14:44:04;6.60;;;2.53;;
78402;SDS011;67687;43.508;1.504;2024-03-02T14:46:30;9.67;;;3.17;;
78402;SDS011;67687;43.508;1.504;2024-03-02T14:48:57;11.60;;;3.25;;